createdAt,value
2022-10-10T00:00:48.496Z,88.58
2022-10-10T00:03:14.885Z,89.04
2022-10-10T00:05:41.969Z,89.89
2022-10-10T00:08:08.925Z,90.32
2022-10-10T00:10:35.363Z,89.80
2022-10-10T00:13:02.235Z,89.99
2022-10-10T00:15:28.894Z,90.03
2022-10-10T00:17:55.308Z,90.13
2022-10-10T00:20:21.750Z,89.77
2022-10-10T00:22:48.734Z,90.06
2022-10-10T00:25:15.413Z,90.03
2022-10-10T00:27:41.747Z,90.60
2022-10-10T00:30:08.650Z,92.22
2022-10-10T00:32:35.988Z,91.61
2022-10-10T00:35:03.042Z,91.62
2022-10-10T00:37:29.536Z,92.27
2022-10-10T00:39:55.834Z,92.52
2022-10-10T00:42:22.070Z,92.67
2022-10-10T00:45:27.045Z,92.26
2022-10-10T00:48:00.637Z,93.36
2022-10-10T00:50:28.666Z,94.35
2022-10-10T00:52:55.747Z,93.82
2022-10-10T00:55:22.111Z,94.65
2022-10-10T00:57:50.085Z,94.07
2022-10-10T01:00:16.863Z,94.20
2022-10-10T01:02:43.164Z,94.00
2022-10-10T01:05:09.381Z,93.97
2022-10-10T01:07:36.054Z,93.62
2022-10-10T01:10:10.484Z,93.31
2022-10-10T01:12:58.382Z,93.39
2022-10-10T01:15:35.974Z,93.66
2022-10-10T01:18:14.994Z,93.56
2022-10-10T01:20:53.139Z,93.22
2022-10-10T01:23:28.278Z,93.83
2022-10-10T01:26:05.206Z,93.76
2022-10-10T01:28:53.389Z,93.30
2022-10-10T01:31:24.160Z,92.53
2022-10-10T01:34:03.774Z,92.17
2022-10-10T01:36:39.312Z,91.71
2022-10-10T01:39:13.029Z,92.08
2022-10-10T01:41:45.927Z,91.98
2022-10-10T01:44:12.234Z,92.20
2022-10-10T01:46:38.469Z,93.11
2022-10-10T01:49:04.953Z,92.69
2022-10-10T01:52:01.054Z,92.89
2022-10-10T01:54:57.644Z,93.07
2022-10-10T01:57:54.777Z,92.97
2022-10-10T02:00:21.357Z,93.54
2022-10-10T02:02:50.649Z,93.45
2022-10-10T02:05:20.074Z,93.33
2022-10-10T02:07:53.262Z,93.60
2022-10-10T02:10:28.464Z,93.04
2022-10-10T02:12:57.268Z,92.64
2022-10-10T02:15:27.387Z,93.04
2022-10-10T02:17:57.205Z,94.00
2022-10-10T02:20:26.394Z,94.37
2022-10-10T02:22:54.519Z,94.28
2022-10-10T02:25:26.723Z,95.01
2022-10-10T02:28:03.434Z,95.30
2022-10-10T02:30:31.884Z,94.52
2022-10-10T02:33:03.247Z,94.76
2022-10-10T02:35:35.598Z,94.91
2022-10-10T02:38:02.750Z,95.33
2022-10-10T02:40:31.717Z,95.12
2022-10-10T02:43:02.178Z,95.00
2022-10-10T02:45:30.746Z,95.31
2022-10-10T02:47:57.116Z,96.76
2022-10-10T02:50:23.674Z,96.20
2022-10-10T02:52:50.207Z,96.38
2022-10-10T02:55:16.948Z,96.52
2022-10-10T02:57:43.276Z,96.37
2022-10-10T03:00:09.815Z,96.44
2022-10-10T03:02:36.189Z,96.75
2022-10-10T03:05:03.907Z,96.90
2022-10-10T03:07:31.900Z,96.70
2022-10-10T03:09:58.149Z,96.99
2022-10-10T03:12:24.476Z,97.51
2022-10-10T03:14:50.718Z,97.53
2022-10-10T03:17:17.296Z,97.11
2022-10-10T03:19:43.667Z,97.88
2022-10-10T03:22:10.244Z,97.23
2022-10-10T03:24:36.558Z,97.80
2022-10-10T03:27:02.822Z,97.25
2022-10-10T03:29:29.149Z,97.32
2022-10-10T03:31:55.924Z,96.78
2022-10-10T03:34:22.293Z,97.27
2022-10-10T03:36:48.603Z,96.96
2022-10-10T03:39:14.863Z,96.63
2022-10-10T03:41:41.165Z,96.56
2022-10-10T03:44:07.391Z,96.36
2022-10-10T03:46:33.742Z,96.36
2022-10-10T03:49:00.070Z,95.92
2022-10-10T03:51:26.296Z,96.13
2022-10-10T03:53:54.244Z,95.99
2022-10-10T03:56:20.591Z,95.99
2022-10-10T03:58:46.953Z,95.12
2022-10-10T04:01:13.368Z,94.77
2022-10-10T04:03:39.844Z,95.26
2022-10-10T04:06:07.241Z,95.48
2022-10-10T04:08:33.551Z,95.91
2022-10-10T04:10:59.850Z,95.46
2022-10-10T04:13:26.311Z,95.33
2022-10-10T04:15:54.185Z,95.03
2022-10-10T04:18:21.856Z,95.56
2022-10-10T04:20:48.165Z,95.18
2022-10-10T04:23:14.424Z,95.10
2022-10-10T04:25:40.728Z,95.17
2022-10-10T04:28:07.041Z,94.29
2022-10-10T04:30:34.466Z,93.41
2022-10-10T04:33:01.024Z,93.95
2022-10-10T04:35:27.343Z,94.05
2022-10-10T04:37:53.702Z,93.88
2022-10-10T04:40:25.453Z,94.28
2022-10-10T04:42:52.808Z,93.80
2022-10-10T04:45:19.342Z,94.23
2022-10-10T04:47:45.682Z,94.86
2022-10-10T04:50:12.272Z,94.03
2022-10-10T04:52:38.572Z,93.52
2022-10-10T04:55:05.097Z,94.81
2022-10-10T04:57:31.420Z,94.60
2022-10-10T04:59:57.716Z,94.60
2022-10-10T05:02:23.942Z,94.64
2022-10-10T05:04:50.229Z,95.68
2022-10-10T05:07:16.716Z,95.73
2022-10-10T05:09:43.004Z,95.88
2022-10-10T05:12:09.204Z,96.44
2022-10-10T05:14:35.527Z,96.03
2022-10-10T05:17:01.846Z,96.27
2022-10-10T05:19:28.084Z,96.71
2022-10-10T05:21:54.397Z,97.11
2022-10-10T05:24:20.632Z,97.54
2022-10-10T05:26:46.993Z,98.41
2022-10-10T05:29:13.373Z,99.10
2022-10-10T05:31:39.765Z,99.71
2022-10-10T05:34:06.104Z,100.00
2022-10-10T05:36:32.382Z,99.52
2022-10-10T05:38:58.664Z,99.19
2022-10-10T05:41:24.927Z,99.29
2022-10-10T05:43:51.359Z,99.44
2022-10-10T05:46:17.709Z,99.52
2022-10-10T05:48:44.003Z,99.40
2022-10-10T05:51:10.366Z,99.66
2022-10-10T05:53:36.647Z,100.00
2022-10-10T05:56:02.861Z,99.90
2022-10-10T05:58:29.184Z,99.99
2022-10-10T06:00:55.440Z,100.00
2022-10-10T06:03:21.817Z,99.93
2022-10-10T06:05:51.666Z,99.52
2022-10-10T06:08:18.101Z,99.27
2022-10-10T06:10:45.786Z,98.29
2022-10-10T06:13:14.826Z,97.18
2022-10-10T06:15:41.953Z,96.00
2022-10-10T06:18:09.246Z,93.94
2022-10-10T06:20:40.751Z,92.84
2022-10-10T06:23:08.386Z,92.08
2022-10-10T06:25:40.424Z,91.60
2022-10-10T06:28:08.459Z,90.14
2022-10-10T06:30:40.070Z,89.19
2022-10-10T06:33:06.382Z,86.71
2022-10-10T06:35:32.882Z,86.19
2022-10-10T06:37:59.190Z,85.89
2022-10-10T06:40:25.621Z,84.25
2022-10-10T06:42:52.274Z,84.04
2022-10-10T06:45:18.737Z,82.47
2022-10-10T06:47:45.065Z,79.41
2022-10-10T06:50:11.404Z,77.33
2022-10-10T06:52:37.737Z,76.68
2022-10-10T06:55:04.384Z,76.62
2022-10-10T06:57:30.695Z,75.65
2022-10-10T06:59:57.010Z,74.39
2022-10-10T07:02:23.385Z,74.47
2022-10-10T07:04:49.883Z,73.52
2022-10-10T07:07:16.658Z,74.07
2022-10-10T07:09:43.058Z,73.46
2022-10-10T07:12:09.373Z,72.72
2022-10-10T07:14:35.722Z,71.94
2022-10-10T07:17:02.025Z,71.13
2022-10-10T07:19:28.314Z,69.62
2022-10-10T07:21:54.673Z,69.93
2022-10-10T07:24:21.047Z,69.46
2022-10-10T07:26:47.413Z,68.64
2022-10-10T07:29:13.733Z,66.34
2022-10-10T07:31:40.098Z,66.86
2022-10-10T07:34:06.466Z,67.33
2022-10-10T07:36:32.780Z,65.66
2022-10-10T07:38:59.101Z,66.29
2022-10-10T07:41:25.419Z,66.78
2022-10-10T07:43:56.082Z,65.50
2022-10-10T07:46:22.977Z,62.53
2022-10-10T07:48:49.296Z,62.14
2022-10-10T07:51:15.922Z,62.75
2022-10-10T07:53:42.239Z,62.22
2022-10-10T07:56:09.714Z,61.70
2022-10-10T07:58:36.576Z,59.79
2022-10-10T08:01:08.563Z,57.41
2022-10-10T08:03:35.344Z,58.23
2022-10-10T08:06:07.422Z,58.53
2022-10-10T08:08:37.821Z,57.04
2022-10-10T08:11:10.719Z,56.15
2022-10-10T08:13:38.341Z,55.23
2022-10-10T08:16:05.402Z,55.45
2022-10-10T08:18:31.930Z,54.71
2022-10-10T08:21:05.393Z,50.91
2022-10-10T08:23:31.766Z,53.26
2022-10-10T08:25:59.432Z,54.21
2022-10-10T08:28:26.404Z,54.56
2022-10-10T08:30:52.925Z,54.80
2022-10-10T08:33:19.289Z,54.45
2022-10-10T08:35:45.603Z,55.10
2022-10-10T08:38:12.174Z,55.30
2022-10-10T08:40:45.241Z,54.78
2022-10-10T08:43:21.131Z,55.79
2022-10-10T08:45:48.401Z,56.78
2022-10-10T08:48:18.847Z,57.27
2022-10-10T08:50:54.611Z,57.57
2022-10-10T08:53:43.456Z,56.89
2022-10-10T08:56:16.508Z,55.83
2022-10-10T08:58:46.847Z,55.51
2022-10-10T09:02:18.526Z,54.43
2022-10-10T09:04:29.085Z,54.10
2022-10-10T09:07:13.207Z,52.47
2022-10-10T09:09:51.678Z,52.31
2022-10-10T09:12:38.258Z,52.65
2022-10-10T09:15:45.134Z,52.44
2022-10-10T09:18:39.956Z,52.65
2022-10-10T09:21:20.394Z,51.87
2022-10-10T09:24:03.081Z,49.81
2022-10-10T09:26:37.666Z,50.89
2022-10-10T09:29:32.138Z,52.35
2022-10-10T09:32:13.662Z,52.60
2022-10-10T09:34:45.394Z,53.55
2022-10-10T09:37:24.256Z,54.32
2022-10-10T09:40:25.419Z,54.14
2022-10-10T09:42:52.018Z,54.14
2022-10-10T09:45:19.866Z,54.05
2022-10-10T09:47:53.891Z,53.85
2022-10-10T09:50:20.740Z,53.91
2022-10-10T09:52:48.226Z,54.95
2022-10-10T09:55:30.018Z,55.17
2022-10-10T09:58:02.247Z,54.88
2022-10-10T10:00:34.938Z,56.52
2022-10-10T10:03:19.342Z,56.71
2022-10-10T10:05:59.204Z,57.32
2022-10-10T10:08:31.661Z,56.64
2022-10-10T10:10:59.061Z,56.69
2022-10-10T10:13:30.323Z,57.87
2022-10-10T10:16:07.207Z,57.50
2022-10-10T10:18:45.274Z,59.25
2022-10-10T10:21:21.106Z,59.36
2022-10-10T10:24:00.958Z,59.89
2022-10-10T10:26:47.549Z,60.53
2022-10-10T10:29:28.780Z,59.93
2022-10-10T10:32:23.038Z,61.97
2022-10-10T10:35:24.393Z,62.55
2022-10-10T10:38:24.183Z,63.36
2022-10-10T10:41:08.995Z,62.71
2022-10-10T10:43:49.323Z,63.29
2022-10-10T10:46:31.108Z,63.49
2022-10-10T10:49:23.208Z,64.08
2022-10-10T10:52:01.138Z,63.24
2022-10-10T10:55:05.305Z,63.76
2022-10-10T10:58:00.104Z,63.63
2022-10-10T11:05:20.603Z,64.38
2022-10-10T11:06:32.460Z,62.35
2022-10-10T11:09:31.224Z,63.38
2022-10-10T11:12:26.891Z,62.96
2022-10-10T11:15:16.333Z,62.18
2022-10-10T11:17:50.661Z,62.56
2022-10-10T11:20:38.582Z,62.10
2022-10-10T11:23:12.518Z,63.33
2022-10-10T11:25:56.746Z,62.88
2022-10-10T11:28:48.605Z,62.01
2022-10-10T11:31:27.862Z,62.40
2022-10-10T11:33:59.546Z,62.93
2022-10-10T11:36:29.884Z,63.14
2022-10-10T11:39:17.257Z,64.41
2022-10-10T11:41:55.398Z,64.92
2022-10-10T11:44:27.676Z,65.05
2022-10-10T11:47:00.179Z,65.50
2022-10-10T11:49:45.935Z,65.43
2022-10-10T11:52:40.546Z,66.14
2022-10-10T11:55:22.295Z,66.73
2022-10-10T11:58:08.818Z,67.91
2022-10-10T12:00:50.233Z,68.29
2022-10-10T12:03:16.582Z,68.47
2022-10-10T12:05:52.638Z,69.19
2022-10-10T12:08:25.907Z,69.38
2022-10-10T12:10:59.822Z,67.92
2022-10-10T12:13:43.163Z,67.12
2022-10-10T12:16:20.913Z,67.91
2022-10-10T12:18:54.904Z,67.17
2022-10-10T12:21:25.560Z,67.08
2022-10-10T12:24:12.825Z,67.10
2022-10-10T12:26:54.370Z,67.65
2022-10-10T12:29:56.239Z,68.08
2022-10-10T12:32:22.456Z,68.98
2022-10-10T12:34:48.706Z,69.25
2022-10-10T12:37:24.702Z,69.72
2022-10-10T12:40:06.187Z,70.14
2022-10-10T12:42:47.845Z,71.24
2022-10-10T12:45:29.358Z,71.14
2022-10-10T12:48:17.758Z,71.50
2022-10-10T12:50:56.399Z,71.89
2022-10-10T12:53:25.733Z,71.93
2022-10-10T12:55:55.189Z,72.95
2022-10-10T12:58:29.141Z,73.80
2022-10-10T13:00:58.793Z,75.07
2022-10-10T13:03:34.638Z,75.49
2022-10-10T13:06:23.406Z,75.76
2022-10-10T13:08:53.491Z,76.56
2022-10-10T13:11:19.809Z,76.97
2022-10-10T13:13:51.389Z,77.97
2022-10-10T13:16:20.476Z,78.86
2022-10-10T13:18:54.887Z,79.05
2022-10-10T13:21:34.022Z,79.85
2022-10-10T13:24:03.995Z,79.37
2022-10-10T13:26:43.422Z,80.20
2022-10-10T13:29:32.408Z,80.67
2022-10-10T13:32:03.197Z,80.07
2022-10-10T13:34:36.650Z,80.56
2022-10-10T13:37:05.328Z,81.29
2022-10-10T13:39:34.128Z,81.82
2022-10-10T13:42:00.709Z,82.31
2022-10-10T13:44:50.554Z,83.87
2022-10-10T13:47:45.976Z,84.20
2022-10-10T13:50:21.482Z,84.59
2022-10-10T13:52:47.852Z,84.59
2022-10-10T13:55:27.111Z,85.51
2022-10-10T13:57:58.239Z,85.32
2022-10-10T14:00:27.408Z,85.81
2022-10-10T14:02:53.755Z,85.44
2022-10-10T14:05:30.188Z,87.48
2022-10-10T14:07:57.938Z,86.45
2022-10-10T14:10:27.274Z,87.91
2022-10-10T14:12:57.315Z,87.25
2022-10-10T14:15:46.806Z,88.60
2022-10-10T14:18:22.143Z,90.13
2022-10-10T14:20:49.842Z,89.32
2022-10-10T14:23:16.576Z,89.47
2022-10-10T14:25:45.983Z,91.44
2022-10-10T14:28:21.048Z,94.94
2022-10-10T14:30:47.505Z,97.69
2022-10-10T14:33:16.433Z,99.70
2022-10-10T14:35:43.576Z,100.00
2022-10-10T14:38:11.202Z,100.00
2022-10-10T14:40:37.746Z,100.00
2022-10-10T14:43:04.078Z,100.00
2022-10-10T14:45:30.374Z,100.00
2022-10-10T14:47:56.710Z,100.00
2022-10-10T14:50:26.183Z,100.00
2022-10-10T14:52:52.558Z,100.00
2022-10-10T14:55:19.088Z,99.31
2022-10-10T14:57:45.423Z,99.35
2022-10-10T15:00:15.848Z,99.92
2022-10-10T15:02:45.628Z,99.48
2022-10-10T15:05:12.769Z,99.87
2022-10-10T15:07:39.319Z,98.76
2022-10-10T15:12:52.818Z,97.94
2022-10-10T15:15:19.214Z,97.24
2022-10-10T15:17:45.586Z,98.11
2022-10-10T15:20:13.030Z,97.73
2022-10-10T15:22:39.728Z,97.87
2022-10-10T15:25:07.528Z,97.47
2022-10-10T15:27:34.143Z,98.73
2022-10-10T15:30:00.639Z,97.77
2022-10-10T15:32:27.058Z,95.94
2022-10-10T15:34:53.731Z,95.48
2022-10-10T15:37:20.102Z,96.22
2022-10-10T15:39:46.425Z,95.58
2022-10-10T15:42:17.297Z,95.54
2022-10-10T15:44:48.439Z,94.41
2022-10-10T15:47:16.305Z,94.27
2022-10-10T15:49:43.045Z,94.84
2022-10-10T15:52:09.842Z,94.34
2022-10-10T15:54:36.201Z,93.93
2022-10-10T15:57:02.898Z,94.05
2022-10-10T15:59:29.421Z,94.25
2022-10-10T16:01:55.855Z,93.04
2022-10-10T16:04:22.537Z,93.45
2022-10-10T16:06:59.315Z,93.62
2022-10-10T16:09:38.725Z,93.87
2022-10-10T16:12:05.529Z,93.19
2022-10-10T16:14:32.416Z,93.13
2022-10-10T16:17:02.322Z,93.43
2022-10-10T16:19:28.653Z,93.68
2022-10-10T16:21:54.981Z,94.28
2022-10-10T16:24:21.315Z,93.27
2022-10-10T16:26:47.613Z,93.67
2022-10-10T16:29:13.928Z,93.61
2022-10-10T16:31:40.282Z,94.01
2022-10-10T16:34:07.335Z,93.51
2022-10-10T16:36:36.022Z,93.39
2022-10-10T16:39:03.038Z,93.31
2022-10-10T16:41:47.459Z,93.06
2022-10-10T16:44:14.353Z,93.06
2022-10-10T16:46:40.655Z,93.15
2022-10-10T16:49:07.014Z,92.20
2022-10-10T16:51:33.391Z,92.24
2022-10-10T16:54:00.831Z,92.09
2022-10-10T16:56:27.977Z,91.86
2022-10-10T16:58:54.597Z,92.29
2022-10-10T17:01:22.730Z,92.89
2022-10-10T17:03:50.087Z,91.51
2022-10-10T17:06:19.380Z,91.75
2022-10-10T17:08:47.513Z,91.95
2022-10-10T17:11:14.512Z,91.65
2022-10-10T17:13:41.772Z,90.80
2022-10-10T17:16:47.937Z,89.82
2022-10-10T17:18:59.327Z,89.87
2022-10-10T17:21:25.642Z,90.13
2022-10-10T17:23:52.582Z,91.32
2022-10-10T17:26:21.201Z,90.58
2022-10-10T17:28:47.740Z,91.24
2022-10-10T17:31:15.040Z,90.62
2022-10-10T17:33:43.557Z,90.47
2022-10-10T17:36:13.143Z,90.94
2022-10-10T17:38:40.463Z,90.95
2022-10-10T17:41:09.708Z,90.79
2022-10-10T17:43:36.074Z,90.85
2022-10-10T17:46:32.535Z,91.09
2022-10-10T17:48:51.846Z,92.24
2022-10-10T17:51:20.098Z,92.44
2022-10-10T17:53:46.405Z,92.80
2022-10-10T17:56:18.158Z,93.25
2022-10-10T17:58:46.738Z,93.47
2022-10-10T18:01:15.085Z,92.77
2022-10-10T18:03:41.805Z,93.58
2022-10-10T18:06:11.716Z,93.30
2022-10-10T18:08:38.602Z,93.43
2022-10-10T18:11:08.534Z,93.58
2022-10-10T18:13:37.342Z,93.96
2022-10-10T18:16:14.590Z,93.70
2022-10-10T18:18:45.642Z,94.56
2022-10-10T18:21:15.241Z,95.98
2022-10-10T18:23:41.607Z,94.72
2022-10-10T18:26:12.151Z,94.69
2022-10-10T18:28:39.310Z,94.33
2022-10-10T18:31:13.800Z,93.66
2022-10-10T18:33:41.401Z,93.69
2022-10-10T18:36:12.238Z,93.65
2022-10-10T18:38:38.581Z,93.34
2022-10-10T18:41:07.318Z,93.15
2022-10-10T18:43:34.294Z,92.93
2022-10-10T18:46:02.827Z,92.73
2022-10-10T18:48:30.195Z,93.44
2022-10-10T18:51:05.112Z,93.54
2022-10-10T18:53:35.525Z,93.63
2022-10-10T18:56:01.863Z,93.62
2022-10-10T18:58:30.493Z,94.53
2022-10-10T19:01:02.007Z,94.54
2022-10-10T19:03:28.951Z,94.51
2022-10-10T19:05:55.746Z,94.66
2022-10-10T19:08:22.172Z,94.11
2022-10-10T19:10:49.736Z,94.04
2022-10-10T19:13:16.658Z,94.13
2022-10-10T19:15:42.996Z,94.47
2022-10-10T19:18:09.970Z,94.59
2022-10-10T19:20:36.727Z,94.73
2022-10-10T19:23:03.062Z,94.97
2022-10-10T19:25:29.380Z,95.18
2022-10-10T19:27:56.670Z,94.82
2022-10-10T19:30:23.462Z,95.12
2022-10-10T19:32:49.938Z,95.43
2022-10-10T19:35:16.305Z,95.37
2022-10-10T19:37:42.614Z,95.29
2022-10-10T19:40:09.312Z,94.82
2022-10-10T19:42:35.658Z,95.31
2022-10-10T19:45:01.992Z,95.16
2022-10-10T19:47:28.328Z,95.56
2022-10-10T19:49:54.626Z,95.67
2022-10-10T19:52:20.960Z,95.39
2022-10-10T19:54:47.298Z,95.72
2022-10-10T19:57:13.618Z,96.19
2022-10-10T19:59:39.946Z,96.11
2022-10-10T20:02:06.686Z,96.33
2022-10-10T20:04:33.091Z,96.36
2022-10-10T20:06:59.398Z,96.60
2022-10-10T20:09:25.765Z,96.55
2022-10-10T20:11:52.093Z,96.59
2022-10-10T20:14:18.482Z,96.95
2022-10-10T20:16:44.796Z,97.09
2022-10-10T20:19:11.177Z,97.42
2022-10-10T20:21:37.529Z,97.54
2022-10-10T20:24:09.678Z,97.68
2022-10-10T20:26:36.657Z,97.86
2022-10-10T20:29:04.765Z,97.70
2022-10-10T20:31:33.819Z,97.95
2022-10-10T20:34:01.182Z,96.90
2022-10-10T20:36:29.331Z,96.72
2022-10-10T20:39:05.748Z,97.18
2022-10-10T20:41:33.621Z,97.37
2022-10-10T20:44:02.034Z,96.80
2022-10-10T20:46:31.507Z,96.87
2022-10-10T20:48:59.106Z,96.17
2022-10-10T20:51:27.128Z,95.46
2022-10-10T20:53:59.089Z,94.17
2022-10-10T20:56:26.754Z,94.29
2022-10-10T20:58:53.202Z,94.29
2022-10-10T21:01:22.076Z,94.94
2022-10-10T21:03:48.952Z,95.95
2022-10-10T21:06:31.670Z,96.88
2022-10-10T21:09:04.402Z,96.99
2022-10-10T21:11:30.828Z,97.51
2022-10-10T21:13:59.682Z,97.75
2022-10-10T21:16:29.472Z,97.21
2022-10-10T21:18:58.173Z,97.76
2022-10-10T21:21:26.230Z,97.89
2022-10-10T21:23:55.931Z,97.82
2022-10-10T21:26:25.270Z,97.87
2022-10-10T21:28:52.511Z,97.29
2022-10-10T21:31:21.445Z,96.36
2022-10-10T21:33:48.308Z,96.53
2022-10-10T21:36:15.742Z,97.15
2022-10-10T21:38:42.422Z,97.78
2022-10-10T21:41:13.324Z,98.09
2022-10-10T21:43:40.886Z,98.05
2022-10-10T21:46:13.088Z,98.42
2022-10-10T21:48:39.694Z,98.30
2022-10-10T21:51:06.408Z,98.04
2022-10-10T21:53:32.774Z,98.51
2022-10-10T21:55:59.284Z,98.46
2022-10-10T21:58:25.883Z,98.29
2022-10-10T22:00:52.256Z,98.16
2022-10-10T22:03:18.652Z,97.72
2022-10-10T22:05:44.975Z,98.99
2022-10-10T22:08:11.613Z,99.55
2022-10-10T22:10:40.790Z,100.00
2022-10-10T22:13:07.166Z,100.00
2022-10-10T22:15:33.582Z,100.00
2022-10-10T22:17:59.794Z,100.00
2022-10-10T22:20:26.159Z,100.00
2022-10-10T22:22:52.511Z,100.00
2022-10-10T22:25:18.816Z,100.00
2022-10-10T22:27:45.265Z,100.00
2022-10-10T22:30:13.393Z,100.00
2022-10-10T22:32:39.731Z,100.00
2022-10-10T22:35:06.102Z,100.00
2022-10-10T22:37:32.435Z,100.00
2022-10-10T22:39:58.671Z,100.00
2022-10-10T22:42:25.049Z,99.53
2022-10-10T22:44:51.290Z,99.58
2022-10-10T22:47:17.603Z,99.33
2022-10-10T22:49:43.831Z,99.80
2022-10-10T22:52:10.369Z,100.00
2022-10-10T22:54:36.706Z,100.00
2022-10-10T22:57:02.994Z,100.00
2022-10-10T22:59:29.423Z,100.00
2022-10-10T23:01:55.832Z,100.00
2022-10-10T23:04:22.650Z,100.00
2022-10-10T23:06:49.492Z,100.00
2022-10-10T23:09:16.805Z,100.00
2022-10-10T23:11:43.232Z,100.00
2022-10-10T23:14:09.626Z,99.22
2022-10-10T23:16:40.378Z,98.79
2022-10-10T23:19:07.118Z,100.00
2022-10-10T23:21:33.396Z,100.00
2022-10-10T23:23:59.714Z,100.00
2022-10-10T23:26:25.981Z,100.00
2022-10-10T23:28:52.364Z,100.00
2022-10-10T23:31:18.718Z,100.00
2022-10-10T23:33:44.949Z,100.00
2022-10-10T23:36:12.866Z,100.00
2022-10-10T23:38:39.479Z,100.00
2022-10-10T23:41:06.094Z,100.00
2022-10-10T23:43:32.716Z,100.00
2022-10-10T23:45:59.051Z,100.00
2022-10-10T23:48:25.310Z,100.00
2022-10-10T23:50:51.706Z,100.00
2022-10-10T23:53:18.031Z,100.00
2022-10-10T23:55:44.266Z,100.00
2022-10-10T23:58:10.546Z,100.00
